Blankenberge, Belgium
Current Conditions -  °F | °C
As of 10:20 AM on Wednesday 22 Oct 2014 (Local Time) from EBOS Reporting Station
Scattered Clouds Scattered Clouds  
Wind Chill: 52°   Ceiling: Unl
Heat Index: 52°   Visibility: 6mi
Dew Point: 39°   Wind: 23mph
Humidity: 62%   Direction: 320°NW
Pressure: 30.18"   Gusts: 35mph
Location:  51.31°N, 3.13°E
Report Text: EBOS 220820Z 32020G30KT 9999 SCT028 11/04 Q1022 NOSIG
Loading
Personal Weather Stations






























Interactive Weather Map New forecast layout! Learn more

10-Day Weather Forecast

Advertisements
Track Severe Weather on mobile